Keller, Washington
Current Conditions -  °F | °C
As of 9:29 AM on Thursday 27 Nov 2014 (Local Time) from KOMK Reporting Station
Broken Clouds Broken Clouds  
Wind Chill: 33°   Ceiling: 400
Heat Index: 37°   Visibility: 10mi
Dew Point: 35°   Wind: 5mph
Humidity: 93%   Direction: 110°ESE
Pressure: 29.8"   Gusts: NA
Location:  48.08°N, 118.69°W
Report Text: KOMK 271729Z AUTO 11004KT 10SM BKN004 03/02 A2980 RMK AO2 T00280017
Loading
Personal Weather Stations






























Interactive Weather Map New forecast layout! Learn more

10-Day Weather Forecast

Advertisements
Track Severe Weather on mobile